Terminal Aerodrome Forecast
Issued by NWS

Home | Current Version | Previous Version | Text Only | Print | Product List | Glossary On
Versions: 1 2 3 4 5 6 7 8 9 10 11 12 13 14 15 16 17 18 19 20 21 22 23 24 25 26 27 28 29 30 31 32 33 34 35 36 37 38 39 40 41 42 43 44 45 46 47
000
FTUS45 KGJT 200725 AAA
TAFEGE
TAF AMD
KEGE 200725Z 2007/2106 28011KT 2SM -SN BR BKN020 OVC035
     FM200900 27008KT P6SM VCSH SCT030 BKN050
     FM201200 24009KT P6SM VCSH SCT030 BKN040
     FM202300 23013KT P6SM SCT050 BKN070
     FM210200 VRB04KT P6SM FEW045 SCT100
      AMD LTD TO CLD VIS AND WIND TIL 201400=

USA.gov is the U.S. government's official web portal to all federal, state and local government web resources and services.